← Previous May 31, 2023 3:23 PM

FTUS43 KFSD 282326
TAFHON
TAF
KHON 282326Z 2900/2924 16015G22KT P6SM VCSH SCT080 BKN250
     FM290200 16012KT P6SM BKN130
     FM290800 17010G15KT P6SM VCTS SCT070CB
      TEMPO 2908/2911 4SM -TSRA BKN070CB
     FM292000 18011G17KT P6SM SCT130=